Decoded Metar for ZMUB (ULAN BATOR in MONGOLIA) (IATA:ULN) | Meteo·Mobile Aviation Weather
aviador You're here:

ZMUB Decoded Metar

ULAN BATOR in MONGOLIA
Report Time2018-10-17 06:00:00
UTC Time2018-10-17 06:14:52
Flight Rules vfr VFR
WindVRB at 2 kt
Visibility9999 m
Phenomena:N/A
Clouds:Few 033 Hf
Expected CloudBase > 9,200 ft AGL from Temp-Dew spread
CeilingNone
Temp12°C (ISA +6)
Dew Point-11°C (19% RH)
AAT8.2°C
QNH1022 hPa
Density Alt4,770 ft
Elevation4,364 ft
Report Wrong Elevation
Raw Report
ZMUB 170600Z VRB01MPS 9999 FEW033 12/M11 Q1022 NOSIG RMK QFE658.8
20 MOP=

Extra information for ZMUB:More info

Metar Taf Metar & Taf Last 4 Metars F.Rules Stats Wind Profile Meteogram Temp Stats Airport Information Weather charts Add Link Nearby VenuesMetar ALERT Operation Metar Decoded Social comments